sensor_id;sensor_type;location;lat;lon;timestamp;temperature;humidity
21489;DHT22;10906;45.194;5.684;2023-03-14T05:40:29;10.40;99.90
21489;DHT22;10906;45.194;5.684;2023-03-14T05:43:14;10.40;99.90
21489;DHT22;10906;45.194;5.684;2023-03-14T05:45:59;10.40;99.90
21489;DHT22;10906;45.194;5.684;2023-03-14T05:48:44;10.40;99.90
21489;DHT22;10906;45.194;5.684;2023-03-14T05:51:28;10.30;99.90
21489;DHT22;10906;45.194;5.684;2023-03-14T05:54:12;10.30;99.90
21489;DHT22;10906;45.194;5.684;2023-03-14T05:56:57;10.30;99.90
21489;DHT22;10906;45.194;5.684;2023-03-14T05:59:41;10.30;99.90
21489;DHT22;10906;45.194;5.684;2023-03-14T06:02:26;10.20;99.90
21489;DHT22;10906;45.194;5.684;2023-03-14T06:05:10;10.30;99.90
21489;DHT22;10906;45.194;5.684;2023-03-14T06:07:55;10.30;99.90
21489;DHT22;10906;45.194;5.684;2023-03-14T06:10:39;10.30;99.90
21489;DHT22;10906;45.194;5.684;2023-03-14T06:13:24;10.20;99.90
21489;DHT22;10906;45.194;5.684;2023-03-14T06:16:08;10.20;99.90
21489;DHT22;10906;45.194;5.684;2023-03-14T06:18:53;10.20;99.90
21489;DHT22;10906;45.194;5.684;2023-03-14T06:21:37;10.20;99.90
21489;DHT22;10906;45.194;5.684;2023-03-14T06:24:22;10.30;99.90
21489;DHT22;10906;45.194;5.684;2023-03-14T06:27:06;10.30;99.90
21489;DHT22;10906;45.194;5.684;2023-03-14T06:29:51;10.40;99.90
21489;DHT22;10906;45.194;5.684;2023-03-14T06:32:35;10.30;99.90
21489;DHT22;10906;45.194;5.684;2023-03-14T06:35:19;10.30;99.90
21489;DHT22;10906;45.194;5.684;2023-03-14T06:38:03;10.40;99.90
21489;DHT22;10906;45.194;5.684;2023-03-14T06:40:48;10.40;99.90
21489;DHT22;10906;45.194;5.684;2023-03-14T06:43:32;10.30;99.90
21489;DHT22;10906;45.194;5.684;2023-03-14T06:46:17;10.20;99.90
21489;DHT22;10906;45.194;5.684;2023-03-14T06:49:01;10.30;99.90
21489;DHT22;10906;45.194;5.684;2023-03-14T06:51:46;10.30;99.90
21489;DHT22;10906;45.194;5.684;2023-03-14T06:54:30;10.30;99.90
21489;DHT22;10906;45.194;5.684;2023-03-14T06:57:15;10.20;99.90
21489;DHT22;10906;45.194;5.684;2023-03-14T07:00:00;10.10;99.90
21489;DHT22;10906;45.194;5.684;2023-03-14T07:02:44;10.10;99.90
21489;DHT22;10906;45.194;5.684;2023-03-14T07:05:28;10.10;99.90
21489;DHT22;10906;45.194;5.684;2023-03-14T07:08:14;10.10;99.90
21489;DHT22;10906;45.194;5.684;2023-03-14T07:10:58;10.00;99.90
21489;DHT22;10906;45.194;5.684;2023-03-14T07:13:42;10.00;99.90
21489;DHT22;10906;45.194;5.684;2023-03-14T07:16:41;10.00;99.90
21489;DHT22;10906;45.194;5.684;2023-03-14T07:19:31;11.40;99.90
21489;DHT22;10906;45.194;5.684;2023-03-14T07:22:16;10.20;99.90
21489;DHT22;10906;45.194;5.684;2023-03-14T07:25:00;10.10;99.90
21489;DHT22;10906;45.194;5.684;2023-03-14T07:27:45;10.10;99.90
21489;DHT22;10906;45.194;5.684;2023-03-14T07:30:32;10.10;99.90
21489;DHT22;10906;45.194;5.684;2023-03-14T07:33:19;10.10;99.90
21489;DHT22;10906;45.194;5.684;2023-03-14T07:36:03;10.10;99.90
21489;DHT22;10906;45.194;5.684;2023-03-14T07:38:48;10.10;99.90
21489;DHT22;10906;45.194;5.684;2023-03-14T07:41:33;10.20;99.90
21489;DHT22;10906;45.194;5.684;2023-03-14T07:44:35;10.30;99.90
21489;DHT22;10906;45.194;5.684;2023-03-14T07:50:08;10.10;99.90
21489;DHT22;10906;45.194;5.684;2023-03-14T07:52:54;9.20;99.90
21489;DHT22;10906;45.194;5.684;2023-03-14T07:55:41;10.00;99.90
21489;DHT22;10906;45.194;5.684;2023-03-14T07:58:26;10.00;99.90
21489;DHT22;10906;45.194;5.684;2023-03-14T08:01:20;10.10;99.90
21489;DHT22;10906;45.194;5.684;2023-03-14T08:04:07;10.20;99.90
21489;DHT22;10906;45.194;5.684;2023-03-14T08:06:52;10.20;99.90
21489;DHT22;10906;45.194;5.684;2023-03-14T08:09:38;10.30;99.90
21489;DHT22;10906;45.194;5.684;2023-03-14T08:12:22;10.30;99.90
21489;DHT22;10906;45.194;5.684;2023-03-14T08:15:07;10.20;99.90
21489;DHT22;10906;45.194;5.684;2023-03-14T08:17:52;10.20;99.90
21489;DHT22;10906;45.194;5.684;2023-03-14T08:20:37;10.20;99.90
21489;DHT22;10906;45.194;5.684;2023-03-14T08:23:28;10.20;99.90
21489;DHT22;10906;45.194;5.684;2023-03-14T08:26:13;10.10;99.90
21489;DHT22;10906;45.194;5.684;2023-03-14T08:28:57;10.10;99.90
21489;DHT22;10906;45.194;5.684;2023-03-14T08:31:41;10.10;99.90
21489;DHT22;10906;45.194;5.684;2023-03-14T08:38:13;10.00;99.90
21489;DHT22;10906;45.194;5.684;2023-03-14T08:41:02;10.00;99.90
21489;DHT22;10906;45.194;5.684;2023-03-14T08:43:46;10.00;99.90
21489;DHT22;10906;45.194;5.684;2023-03-14T08:46:31;10.00;99.90
21489;DHT22;10906;45.194;5.684;2023-03-14T08:49:15;10.00;99.90
21489;DHT22;10906;45.194;5.684;2023-03-14T08:52:04;9.90;99.90
21489;DHT22;10906;45.194;5.684;2023-03-14T08:57:14;9.90;99.90
21489;DHT22;10906;45.194;5.684;2023-03-14T09:00:08;10.00;99.90
21489;DHT22;10906;45.194;5.684;2023-03-14T09:02:58;10.10;99.90
21489;DHT22;10906;45.194;5.684;2023-03-14T09:05:52;10.20;99.90
21489;DHT22;10906;45.194;5.684;2023-03-14T09:11:10;10.10;99.90
21489;DHT22;10906;45.194;5.684;2023-03-14T09:13:54;9.20;99.90
21489;DHT22;10906;45.194;5.684;2023-03-14T09:16:39;10.00;99.90
21489;DHT22;10906;45.194;5.684;2023-03-14T09:19:23;10.00;99.90
21489;DHT22;10906;45.194;5.684;2023-03-14T09:22:07;10.00;99.90
21489;DHT22;10906;45.194;5.684;2023-03-14T09:24:51;10.00;99.90
21489;DHT22;10906;45.194;5.684;2023-03-14T09:27:35;10.10;99.90
21489;DHT22;10906;45.194;5.684;2023-03-14T09:30:20;10.10;99.90
21489;DHT22;10906;45.194;5.684;2023-03-14T09:33:04;10.20;99.90
21489;DHT22;10906;45.194;5.684;2023-03-14T09:35:50;10.20;99.90
21489;DHT22;10906;45.194;5.684;2023-03-14T09:38:34;10.20;99.90
21489;DHT22;10906;45.194;5.684;2023-03-14T09:44:30;10.20;99.90
21489;DHT22;10906;45.194;5.684;2023-03-14T09:47:19;10.10;99.90
21489;DHT22;10906;45.194;5.684;2023-03-14T09:50:33;9.70;99.90
21489;DHT22;10906;45.194;5.684;2023-03-14T09:53:18;10.10;99.90
21489;DHT22;10906;45.194;5.684;2023-03-14T09:56:03;10.10;99.90
21489;DHT22;10906;45.194;5.684;2023-03-14T09:58:54;10.10;99.90
21489;DHT22;10906;45.194;5.684;2023-03-14T10:01:39;10.10;99.90
21489;DHT22;10906;45.194;5.684;2023-03-14T10:04:24;10.10;99.90
21489;DHT22;10906;45.194;5.684;2023-03-14T10:07:13;10.10;99.90
21489;DHT22;10906;45.194;5.684;2023-03-14T10:09:59;10.20;99.90
21489;DHT22;10906;45.194;5.684;2023-03-14T10:12:46;10.20;99.90
21489;DHT22;10906;45.194;5.684;2023-03-14T10:15:33;10.30;99.90
21489;DHT22;10906;45.194;5.684;2023-03-14T10:18:18;10.30;99.90
21489;DHT22;10906;45.194;5.684;2023-03-14T10:21:25;10.40;99.90
21489;DHT22;10906;45.194;5.684;2023-03-14T10:24:32;10.40;99.90
21489;DHT22;10906;45.194;5.684;2023-03-14T10:27:27;10.30;99.90
21489;DHT22;10906;45.194;5.684;2023-03-14T10:30:40;10.20;99.90
21489;DHT22;10906;45.194;5.684;2023-03-14T10:33:31;10.20;99.90
21489;DHT22;10906;45.194;5.684;2023-03-14T10:39:36;10.10;99.90
21489;DHT22;10906;45.194;5.684;2023-03-14T10:42:30;10.10;99.90
21489;DHT22;10906;45.194;5.684;2023-03-14T10:46:15;10.00;99.90
21489;DHT22;10906;45.194;5.684;2023-03-14T10:48:59;10.00;99.90
21489;DHT22;10906;45.194;5.684;2023-03-14T10:51:48;9.90;99.90
21489;DHT22;10906;45.194;5.684;2023-03-14T10:54:32;9.90;99.90
21489;DHT22;10906;45.194;5.684;2023-03-14T10:57:19;10.00;99.90
21489;DHT22;10906;45.194;5.684;2023-03-14T11:00:11;10.00;99.90
21489;DHT22;10906;45.194;5.684;2023-03-14T11:03:10;10.10;99.90
21489;DHT22;10906;45.194;5.684;2023-03-14T11:11:32;10.30;99.90
21489;DHT22;10906;45.194;5.684;2023-03-14T11:14:34;10.40;99.90
21489;DHT22;10906;45.194;5.684;2023-03-14T11:20:46;10.60;99.90
21489;DHT22;10906;45.194;5.684;2023-03-14T11:26:33;10.70;99.90
21489;DHT22;10906;45.194;5.684;2023-03-14T11:29:51;10.80;99.90
21489;DHT22;10906;45.194;5.684;2023-03-14T11:32:50;11.00;99.90
21489;DHT22;10906;45.194;5.684;2023-03-14T11:36:09;11.20;99.90
21489;DHT22;10906;45.194;5.684;2023-03-14T11:38:58;11.40;99.90
21489;DHT22;10906;45.194;5.684;2023-03-14T11:41:53;11.70;99.90
21489;DHT22;10906;45.194;5.684;2023-03-14T11:44:38;11.80;99.90
21489;DHT22;10906;45.194;5.684;2023-03-14T11:47:32;11.90;99.90
21489;DHT22;10906;45.194;5.684;2023-03-14T11:50:27;12.10;99.90
21489;DHT22;10906;45.194;5.684;2023-03-14T11:53:40;12.20;99.90
21489;DHT22;10906;45.194;5.684;2023-03-14T11:56:29;12.10;99.90
21489;DHT22;10906;45.194;5.684;2023-03-14T11:59:20;12.10;99.90
21489;DHT22;10906;45.194;5.684;2023-03-14T12:14:30;12.30;99.90
21489;DHT22;10906;45.194;5.684;2023-03-14T12:17:21;12.60;99.90
21489;DHT22;10906;45.194;5.684;2023-03-14T12:20:20;12.70;99.90
21489;DHT22;10906;45.194;5.684;2023-03-14T12:23:10;13.00;99.90
21489;DHT22;10906;45.194;5.684;2023-03-14T12:32:06;14.60;99.90
21489;DHT22;10906;45.194;5.684;2023-03-14T12:34:51;14.80;99.90
21489;DHT22;10906;45.194;5.684;2023-03-14T12:37:37;15.00;99.90
21489;DHT22;10906;45.194;5.684;2023-03-14T12:40:33;15.20;99.90
21489;DHT22;10906;45.194;5.684;2023-03-14T12:43:27;15.50;99.90
21489;DHT22;10906;45.194;5.684;2023-03-14T12:51:47;15.40;99.90
21489;DHT22;10906;45.194;5.684;2023-03-14T12:58:04;15.40;99.90
21489;DHT22;10906;45.194;5.684;2023-03-14T13:01:15;15.70;99.90
21489;DHT22;10906;45.194;5.684;2023-03-14T13:04:11;16.20;99.90
21489;DHT22;10906;45.194;5.684;2023-03-14T13:07:10;16.30;99.90
21489;DHT22;10906;45.194;5.684;2023-03-14T13:13:24;15.90;99.90
21489;DHT22;10906;45.194;5.684;2023-03-14T13:16:17;15.50;99.90
21489;DHT22;10906;45.194;5.684;2023-03-14T13:19:09;15.10;99.90
21489;DHT22;10906;45.194;5.684;2023-03-14T13:22:03;14.70;99.90
21489;DHT22;10906;45.194;5.684;2023-03-14T13:24:48;14.40;99.90
21489;DHT22;10906;45.194;5.684;2023-03-14T13:27:32;14.30;99.90
21489;DHT22;10906;45.194;5.684;2023-03-14T13:30:29;14.00;99.90
21489;DHT22;10906;45.194;5.684;2023-03-14T13:33:21;14.00;99.90
21489;DHT22;10906;45.194;5.684;2023-03-14T13:36:10;13.90;99.90
21489;DHT22;10906;45.194;5.684;2023-03-14T13:38:59;14.00;99.90
21489;DHT22;10906;45.194;5.684;2023-03-14T13:41:44;14.00;99.90
21489;DHT22;10906;45.194;5.684;2023-03-14T13:44:35;14.00;99.90
21489;DHT22;10906;45.194;5.684;2023-03-14T13:47:22;14.40;99.90
21489;DHT22;10906;45.194;5.684;2023-03-14T13:50:15;14.80;99.90
21489;DHT22;10906;45.194;5.684;2023-03-14T13:53:00;14.70;99.90
21489;DHT22;10906;45.194;5.684;2023-03-14T13:55:44;14.40;99.90
21489;DHT22;10906;45.194;5.684;2023-03-14T13:58:30;14.10;99.90
21489;DHT22;10906;45.194;5.684;2023-03-14T14:01:43;13.80;99.90
21489;DHT22;10906;45.194;5.684;2023-03-14T14:04:27;13.50;99.90
21489;DHT22;10906;45.194;5.684;2023-03-14T14:07:16;13.20;99.90
21489;DHT22;10906;45.194;5.684;2023-03-14T14:10:04;13.00;99.90
21489;DHT22;10906;45.194;5.684;2023-03-14T14:13:01;12.80;99.90
21489;DHT22;10906;45.194;5.684;2023-03-14T14:15:49;12.70;99.90
21489;DHT22;10906;45.194;5.684;2023-03-14T14:18:35;12.60;99.90
21489;DHT22;10906;45.194;5.684;2023-03-14T14:21:20;12.60;99.90
21489;DHT22;10906;45.194;5.684;2023-03-14T14:24:05;12.50;99.90
21489;DHT22;10906;45.194;5.684;2023-03-14T14:26:52;12.50;99.90
21489;DHT22;10906;45.194;5.684;2023-03-14T14:29:36;12.30;99.90
21489;DHT22;10906;45.194;5.684;2023-03-14T14:32:23;12.30;99.90
21489;DHT22;10906;45.194;5.684;2023-03-14T14:35:11;12.30;99.90
21489;DHT22;10906;45.194;5.684;2023-03-14T14:38:12;12.20;99.90
21489;DHT22;10906;45.194;5.684;2023-03-14T14:41:01;12.20;99.90
21489;DHT22;10906;45.194;5.684;2023-03-14T14:43:47;12.20;99.90
21489;DHT22;10906;45.194;5.684;2023-03-14T14:46:33;12.40;99.90
21489;DHT22;10906;45.194;5.684;2023-03-14T14:49:19;12.40;99.90
21489;DHT22;10906;45.194;5.684;2023-03-14T14:52:22;12.40;99.90
21489;DHT22;10906;45.194;5.684;2023-03-14T14:55:19;12.40;99.90
21489;DHT22;10906;45.194;5.684;2023-03-14T15:01:34;12.60;99.90
21489;DHT22;10906;45.194;5.684;2023-03-14T15:04:18;12.60;99.90
21489;DHT22;10906;45.194;5.684;2023-03-14T15:07:03;12.50;99.90
21489;DHT22;10906;45.194;5.684;2023-03-14T15:09:47;12.40;99.90
21489;DHT22;10906;45.194;5.684;2023-03-14T15:12:31;12.20;99.90
21489;DHT22;10906;45.194;5.684;2023-03-14T15:15:17;11.90;99.90
21489;DHT22;10906;45.194;5.684;2023-03-14T15:18:01;11.60;99.90
21489;DHT22;10906;45.194;5.684;2023-03-14T15:20:46;11.30;99.90
21489;DHT22;10906;45.194;5.684;2023-03-14T15:23:40;11.00;99.90
21489;DHT22;10906;45.194;5.684;2023-03-14T15:26:26;10.90;99.90
21489;DHT22;10906;45.194;5.684;2023-03-14T15:29:11;10.80;99.90
21489;DHT22;10906;45.194;5.684;2023-03-14T15:31:56;10.80;99.90
21489;DHT22;10906;45.194;5.684;2023-03-14T15:34:41;11.40;99.90
21489;DHT22;10906;45.194;5.684;2023-03-14T15:37:29;11.80;99.90
21489;DHT22;10906;45.194;5.684;2023-03-14T15:40:16;12.90;99.90
21489;DHT22;10906;45.194;5.684;2023-03-14T15:43:01;14.60;99.90
21489;DHT22;10906;45.194;5.684;2023-03-14T15:45:46;15.40;99.90
21489;DHT22;10906;45.194;5.684;2023-03-14T15:48:31;14.80;99.90
21489;DHT22;10906;45.194;5.684;2023-03-14T15:51:16;15.80;99.90
21489;DHT22;10906;45.194;5.684;2023-03-14T15:54:00;16.20;99.90
21489;DHT22;10906;45.194;5.684;2023-03-14T15:56:45;16.50;99.90
21489;DHT22;10906;45.194;5.684;2023-03-14T15:59:34;16.10;99.90
21489;DHT22;10906;45.194;5.684;2023-03-14T16:02:19;14.00;99.90
21489;DHT22;10906;45.194;5.684;2023-03-14T16:05:04;13.70;99.90
21489;DHT22;10906;45.194;5.684;2023-03-14T16:07:57;12.90;99.90
21489;DHT22;10906;45.194;5.684;2023-03-14T16:10:42;12.40;99.90
21489;DHT22;10906;45.194;5.684;2023-03-14T16:13:27;12.00;99.90
21489;DHT22;10906;45.194;5.684;2023-03-14T16:16:14;11.80;99.90
21489;DHT22;10906;45.194;5.684;2023-03-14T16:18:58;11.70;99.90
21489;DHT22;10906;45.194;5.684;2023-03-14T16:21:43;11.40;99.90
21489;DHT22;10906;45.194;5.684;2023-03-14T16:24:27;11.30;99.90
21489;DHT22;10906;45.194;5.684;2023-03-14T16:27:13;11.10;99.90
21489;DHT22;10906;45.194;5.684;2023-03-14T16:29:58;10.80;99.90
21489;DHT22;10906;45.194;5.684;2023-03-14T16:32:45;10.70;99.90
21489;DHT22;10906;45.194;5.684;2023-03-14T16:35:30;10.50;99.90
21489;DHT22;10906;45.194;5.684;2023-03-14T16:38:14;10.50;99.90
21489;DHT22;10906;45.194;5.684;2023-03-14T16:41:01;10.40;99.90
21489;DHT22;10906;45.194;5.684;2023-03-14T16:43:46;10.30;99.90
21489;DHT22;10906;45.194;5.684;2023-03-14T16:46:35;10.20;99.90
21489;DHT22;10906;45.194;5.684;2023-03-14T16:49:19;10.20;99.90
21489;DHT22;10906;45.194;5.684;2023-03-14T16:52:05;10.20;99.90
21489;DHT22;10906;45.194;5.684;2023-03-14T16:54:49;10.20;99.90
21489;DHT22;10906;45.194;5.684;2023-03-14T16:57:33;10.40;99.90
21489;DHT22;10906;45.194;5.684;2023-03-14T17:00:18;10.40;99.90
21489;DHT22;10906;45.194;5.684;2023-03-14T17:03:04;10.30;99.90
21489;DHT22;10906;45.194;5.684;2023-03-14T17:05:50;10.30;99.90
21489;DHT22;10906;45.194;5.684;2023-03-14T17:08:35;10.40;99.90
21489;DHT22;10906;45.194;5.684;2023-03-14T17:11:20;10.40;99.90
21489;DHT22;10906;45.194;5.684;2023-03-14T17:14:05;10.30;99.90
21489;DHT22;10906;45.194;5.684;2023-03-14T17:16:49;10.30;99.90
21489;DHT22;10906;45.194;5.684;2023-03-14T17:19:34;10.20;99.90
21489;DHT22;10906;45.194;5.684;2023-03-14T17:22:19;10.20;99.90
21489;DHT22;10906;45.194;5.684;2023-03-14T17:25:04;10.20;99.90
21489;DHT22;10906;45.194;5.684;2023-03-14T17:27:48;10.20;99.90
21489;DHT22;10906;45.194;5.684;2023-03-14T17:30:32;10.20;99.90
21489;DHT22;10906;45.194;5.684;2023-03-14T17:33:17;10.10;99.90
21489;DHT22;10906;45.194;5.684;2023-03-14T17:36:02;10.10;99.90
21489;DHT22;10906;45.194;5.684;2023-03-14T17:38:46;9.90;99.90
21489;DHT22;10906;45.194;5.684;2023-03-14T17:41:30;9.90;99.90
21489;DHT22;10906;45.194;5.684;2023-03-14T17:44:15;9.90;99.90
21489;DHT22;10906;45.194;5.684;2023-03-14T17:46:59;9.80;99.90
21489;DHT22;10906;45.194;5.684;2023-03-14T17:49:44;9.80;99.90
21489;DHT22;10906;45.194;5.684;2023-03-14T17:52:31;9.80;99.90
21489;DHT22;10906;45.194;5.684;2023-03-14T17:55:16;9.80;99.90
21489;DHT22;10906;45.194;5.684;2023-03-14T17:58:00;9.80;99.90
21489;DHT22;10906;45.194;5.684;2023-03-14T18:00:46;9.80;99.90
21489;DHT22;10906;45.194;5.684;2023-03-14T18:03:30;9.70;99.90
21489;DHT22;10906;45.194;5.684;2023-03-14T18:06:24;9.70;99.90
21489;DHT22;10906;45.194;5.684;2023-03-14T18:09:30;9.60;99.90
21489;DHT22;10906;45.194;5.684;2023-03-14T18:12:14;10.60;99.90
21489;DHT22;10906;45.194;5.684;2023-03-14T18:15:02;9.40;99.90
21489;DHT22;10906;45.194;5.684;2023-03-14T18:17:47;9.30;99.90
21489;DHT22;10906;45.194;5.684;2023-03-14T18:20:32;9.20;99.90
21489;DHT22;10906;45.194;5.684;2023-03-14T18:23:16;9.20;99.90
21489;DHT22;10906;45.194;5.684;2023-03-14T18:26:01;9.20;99.90
21489;DHT22;10906;45.194;5.684;2023-03-14T18:28:45;9.10;99.90
21489;DHT22;10906;45.194;5.684;2023-03-14T18:31:30;9.10;99.90
21489;DHT22;10906;45.194;5.684;2023-03-14T18:34:17;9.10;99.90
21489;DHT22;10906;45.194;5.684;2023-03-14T18:37:02;9.00;99.90
21489;DHT22;10906;45.194;5.684;2023-03-14T18:39:47;8.90;99.90
21489;DHT22;10906;45.194;5.684;2023-03-14T18:42:31;8.80;99.90
21489;DHT22;10906;45.194;5.684;2023-03-14T18:45:15;8.70;99.90
21489;DHT22;10906;45.194;5.684;2023-03-14T18:48:00;8.80;99.90
21489;DHT22;10906;45.194;5.684;2023-03-14T18:50:44;8.80;99.90
21489;DHT22;10906;45.194;5.684;2023-03-14T18:53:28;8.80;99.90
21489;DHT22;10906;45.194;5.684;2023-03-14T18:56:15;8.80;99.90
21489;DHT22;10906;45.194;5.684;2023-03-14T18:59:00;8.70;99.90
21489;DHT22;10906;45.194;5.684;2023-03-14T19:01:44;8.60;99.90
21489;DHT22;10906;45.194;5.684;2023-03-14T19:04:29;8.50;99.90
21489;DHT22;10906;45.194;5.684;2023-03-14T19:07:14;8.50;99.90
21489;DHT22;10906;45.194;5.684;2023-03-14T19:09:59;8.60;99.90
21489;DHT22;10906;45.194;5.684;2023-03-14T19:12:43;8.70;99.90
21489;DHT22;10906;45.194;5.684;2023-03-14T19:15:27;8.70;99.90
21489;DHT22;10906;45.194;5.684;2023-03-14T19:18:12;8.70;99.90
21489;DHT22;10906;45.194;5.684;2023-03-14T19:20:59;8.70;99.90
21489;DHT22;10906;45.194;5.684;2023-03-14T19:23:43;8.70;99.90
21489;DHT22;10906;45.194;5.684;2023-03-14T19:26:32;8.70;99.90
21489;DHT22;10906;45.194;5.684;2023-03-14T19:29:18;8.70;99.90
21489;DHT22;10906;45.194;5.684;2023-03-14T19:32:02;8.70;99.90
21489;DHT22;10906;45.194;5.684;2023-03-14T19:34:46;8.60;99.90
21489;DHT22;10906;45.194;5.684;2023-03-14T19:37:31;8.60;99.90
21489;DHT22;10906;45.194;5.684;2023-03-14T19:40:15;8.60;99.90
21489;DHT22;10906;45.194;5.684;2023-03-14T19:43:00;8.50;99.90
21489;DHT22;10906;45.194;5.684;2023-03-14T19:45:44;8.40;99.90
21489;DHT22;10906;45.194;5.684;2023-03-14T19:48:29;8.40;99.90
21489;DHT22;10906;45.194;5.684;2023-03-14T19:51:15;8.40;99.90
21489;DHT22;10906;45.194;5.684;2023-03-14T19:53:59;8.40;99.90
21489;DHT22;10906;45.194;5.684;2023-03-14T19:56:46;8.50;99.90
21489;DHT22;10906;45.194;5.684;2023-03-14T19:59:31;8.50;99.90
21489;DHT22;10906;45.194;5.684;2023-03-14T20:02:16;8.50;99.90
21489;DHT22;10906;45.194;5.684;2023-03-14T20:05:00;8.60;99.90
21489;DHT22;10906;45.194;5.684;2023-03-14T20:07:45;8.50;99.90
21489;DHT22;10906;45.194;5.684;2023-03-14T20:10:30;8.40;99.90
21489;DHT22;10906;45.194;5.684;2023-03-14T20:13:15;8.40;99.90
21489;DHT22;10906;45.194;5.684;2023-03-14T20:16:02;8.40;99.90
21489;DHT22;10906;45.194;5.684;2023-03-14T20:18:46;8.40;99.90
21489;DHT22;10906;45.194;5.684;2023-03-14T20:21:31;8.30;99.90
21489;DHT22;10906;45.194;5.684;2023-03-14T20:24:16;8.30;99.90
21489;DHT22;10906;45.194;5.684;2023-03-14T20:27:01;8.40;99.90
21489;DHT22;10906;45.194;5.684;2023-03-14T20:29:45;8.40;99.90
21489;DHT22;10906;45.194;5.684;2023-03-14T20:32:30;8.50;99.90
21489;DHT22;10906;45.194;5.684;2023-03-14T20:35:15;8.40;99.90
21489;DHT22;10906;45.194;5.684;2023-03-14T20:38:06;8.30;99.90
21489;DHT22;10906;45.194;5.684;2023-03-14T20:40:55;8.20;99.90
21489;DHT22;10906;45.194;5.684;2023-03-14T20:43:40;8.20;99.90
21489;DHT22;10906;45.194;5.684;2023-03-14T20:46:24;8.10;99.90
21489;DHT22;10906;45.194;5.684;2023-03-14T20:49:09;8.00;99.90
21489;DHT22;10906;45.194;5.684;2023-03-14T20:51:53;8.10;99.90
21489;DHT22;10906;45.194;5.684;2023-03-14T20:54:38;8.10;99.90
21489;DHT22;10906;45.194;5.684;2023-03-14T20:57:23;8.20;99.90
21489;DHT22;10906;45.194;5.684;2023-03-14T21:00:08;8.30;99.90
21489;DHT22;10906;45.194;5.684;2023-03-14T21:02:53;8.20;99.90
21489;DHT22;10906;45.194;5.684;2023-03-14T21:05:40;8.20;99.90
21489;DHT22;10906;45.194;5.684;2023-03-14T21:08:25;8.30;99.90
21489;DHT22;10906;45.194;5.684;2023-03-14T21:11:09;8.30;99.90
21489;DHT22;10906;45.194;5.684;2023-03-14T21:13:54;8.20;99.90
21489;DHT22;10906;45.194;5.684;2023-03-14T21:16:38;8.20;99.90
21489;DHT22;10906;45.194;5.684;2023-03-14T21:19:24;8.10;99.90
21489;DHT22;10906;45.194;5.684;2023-03-14T21:22:13;8.10;99.90
21489;DHT22;10906;45.194;5.684;2023-03-14T21:25:01;8.20;99.90
21489;DHT22;10906;45.194;5.684;2023-03-14T21:27:45;8.20;99.90
21489;DHT22;10906;45.194;5.684;2023-03-14T21:30:31;8.20;99.90
21489;DHT22;10906;45.194;5.684;2023-03-14T21:33:16;8.20;99.90
21489;DHT22;10906;45.194;5.684;2023-03-14T21:36:00;8.20;99.90
21489;DHT22;10906;45.194;5.684;2023-03-14T21:38:45;8.20;99.90
21489;DHT22;10906;45.194;5.684;2023-03-14T21:41:29;8.30;99.90
21489;DHT22;10906;45.194;5.684;2023-03-14T21:44:14;8.20;99.90
21489;DHT22;10906;45.194;5.684;2023-03-14T21:47:07;8.10;99.90
21489;DHT22;10906;45.194;5.684;2023-03-14T21:49:52;8.10;99.90
21489;DHT22;10906;45.194;5.684;2023-03-14T21:52:37;8.10;99.90
21489;DHT22;10906;45.194;5.684;2023-03-14T21:55:22;8.00;99.90
21489;DHT22;10906;45.194;5.684;2023-03-14T21:58:09;8.10;99.90
21489;DHT22;10906;45.194;5.684;2023-03-14T22:01:01;8.20;99.90
21489;DHT22;10906;45.194;5.684;2023-03-14T22:03:46;8.20;99.90
21489;DHT22;10906;45.194;5.684;2023-03-14T22:06:31;8.10;99.90
21489;DHT22;10906;45.194;5.684;2023-03-14T22:09:18;8.10;99.90
21489;DHT22;10906;45.194;5.684;2023-03-14T22:12:02;8.00;99.90
21489;DHT22;10906;45.194;5.684;2023-03-14T22:14:47;8.00;99.90
21489;DHT22;10906;45.194;5.684;2023-03-14T22:17:32;8.00;99.90
21489;DHT22;10906;45.194;5.684;2023-03-14T22:20:16;8.10;99.90
21489;DHT22;10906;45.194;5.684;2023-03-14T22:23:01;8.10;99.90
21489;DHT22;10906;45.194;5.684;2023-03-14T22:25:46;8.00;99.90
21489;DHT22;10906;45.194;5.684;2023-03-14T22:28:32;8.10;99.90
21489;DHT22;10906;45.194;5.684;2023-03-14T22:31:17;8.10;99.90
21489;DHT22;10906;45.194;5.684;2023-03-14T22:34:01;8.10;99.90
21489;DHT22;10906;45.194;5.684;2023-03-14T22:36:46;8.20;99.90
21489;DHT22;10906;45.194;5.684;2023-03-14T22:39:31;8.20;99.90
21489;DHT22;10906;45.194;5.684;2023-03-14T22:42:16;8.20;99.90
21489;DHT22;10906;45.194;5.684;2023-03-14T22:45:01;8.20;99.90
21489;DHT22;10906;45.194;5.684;2023-03-14T22:47:46;8.20;99.90
21489;DHT22;10906;45.194;5.684;2023-03-14T22:50:30;8.20;99.90
21489;DHT22;10906;45.194;5.684;2023-03-14T22:53:15;8.30;99.90
21489;DHT22;10906;45.194;5.684;2023-03-14T22:56:01;8.20;99.90
21489;DHT22;10906;45.194;5.684;2023-03-14T22:58:45;8.10;99.90
